OAL951 LGTS-EFHK
Flight info
| Callsign | OAL951 |
|---|---|
| Flight time | 3h 2m |
| Altitude | 36000 |
| Route | FSK DCT EVIVI DCT LOMOS DCT IBINU DCT RUMUK/K0813F360 DCT GOTIX/N0439F360 DCT LETKI DCT SOTET DCT ROLAV DCT SOKVA/N0449F370 DCT INTOR |
| Aircraft | B738/M-SDE2E3FGHIRWXY/LB1 |
Departure
| Time | 2026-04-25 10:45 |
|---|---|
| Airport | Thessaloniki Macedonia International Airport (LGTS) |
Arrival
| Time | 2026-04-25 13:48 |
|---|---|
| Airport | Helsinki Vantaa Airport (EFHK) |
| Time | Latitude | Longitude | Altitude | Speed | Heading |
|---|---|---|---|---|---|
| 2026-04-25 10:21 | 40.52279 | 22.97621 | 27 ft | 0 kts | 45° |
| 2026-04-25 10:37 | 40.52275 | 22.97615 | 44 ft | 2 kts | 45° |
| 2026-04-25 10:37 | 40.52265 | 22.97603 | 43 ft | 2 kts | 45° |
| 2026-04-25 10:37 | 40.52256 | 22.97591 | 22 ft | 2 kts | 44° |
| 2026-04-25 10:38 | 40.52246 | 22.97579 | 23 ft | 2 kts | 44° |
| 2026-04-25 10:38 | 40.52240 | 22.97563 | 27 ft | 2 kts | 115° |
| 2026-04-25 10:38 | 40.52242 | 22.97559 | 27 ft | 0 kts | 133° |
| 2026-04-25 10:40 | 40.52240 | 22.97561 | 27 ft | 1 kts | 133° |
| 2026-04-25 10:40 | 40.52222 | 22.97586 | 27 ft | 6 kts | 135° |
| 2026-04-25 10:41 | 40.52173 | 22.97637 | 27 ft | 11 kts | 146° |
| 2026-04-25 10:41 | 40.52112 | 22.97702 | 27 ft | 11 kts | 136° |
| 2026-04-25 10:41 | 40.52058 | 22.97773 | 28 ft | 11 kts | 135° |
| 2026-04-25 10:41 | 40.52007 | 22.97844 | 28 ft | 11 kts | 121° |
| 2026-04-25 10:42 | 40.51985 | 22.97935 | 28 ft | 10 kts | 103° |
| 2026-04-25 10:42 | 40.51968 | 22.98023 | 28 ft | 10 kts | 104° |
| 2026-04-25 10:42 | 40.51950 | 22.98117 | 28 ft | 12 kts | 103° |
| 2026-04-25 10:42 | 40.51928 | 22.98237 | 28 ft | 15 kts | 104° |
| 2026-04-25 10:43 | 40.51901 | 22.98380 | 27 ft | 16 kts | 104° |
| 2026-04-25 10:43 | 40.51875 | 22.98518 | 28 ft | 15 kts | 104° |
| 2026-04-25 10:43 | 40.51851 | 22.98644 | 27 ft | 12 kts | 104° |
| 2026-04-25 10:43 | 40.51788 | 22.98703 | 27 ft | 12 kts | 189° |
| 2026-04-25 10:44 | 40.51710 | 22.98668 | 28 ft | 12 kts | 216° |
| 2026-04-25 10:44 | 40.51696 | 22.98569 | 27 ft | 12 kts | 284° |
| 2026-04-25 10:44 | 40.51724 | 22.98420 | 27 ft | 36 kts | 284° |
| 2026-04-25 10:44 | 40.51834 | 22.97836 | 28 ft | 95 kts | 284° |
| 2026-04-25 10:45 | 40.52036 | 22.96775 | 28 ft | 143 kts | 284° |
| 2026-04-25 10:45 | 40.52297 | 22.95362 | 170 ft | 169 kts | 283° |
| 2026-04-25 10:45 | 40.52607 | 22.93882 | 718 ft | 170 kts | 285° |
| 2026-04-25 10:45 | 40.52934 | 22.92388 | 1306 ft | 169 kts | 288° |
| 2026-04-25 10:46 | 40.53268 | 22.90877 | 1745 ft | 180 kts | 288° |
| 2026-04-25 10:46 | 40.53616 | 22.89192 | 1966 ft | 202 kts | 287° |
| 2026-04-25 10:46 | 40.53996 | 22.87327 | 2108 ft | 220 kts | 287° |
| 2026-04-25 10:46 | 40.54407 | 22.85320 | 2331 ft | 233 kts | 287° |
| 2026-04-25 10:47 | 40.54848 | 22.83181 | 2533 ft | 252 kts | 287° |
| 2026-04-25 10:47 | 40.55402 | 22.80956 | 2996 ft | 260 kts | 299° |
| 2026-04-25 10:47 | 40.56588 | 22.79200 | 3588 ft | 260 kts | 328° |
| 2026-04-25 10:47 | 40.58276 | 22.78387 | 4183 ft | 261 kts | 356° |
| 2026-04-25 10:48 | 40.60063 | 22.78732 | 4767 ft | 264 kts | 22° |
| 2026-04-25 10:48 | 40.61689 | 22.79882 | 5338 ft | 267 kts | 31° |
| 2026-04-25 10:48 | 40.63277 | 22.81183 | 5930 ft | 270 kts | 32° |
| 2026-04-25 10:48 | 40.64867 | 22.82520 | 6548 ft | 273 kts | 32° |
| 2026-04-25 10:49 | 40.66471 | 22.83870 | 7168 ft | 274 kts | 32° |
| 2026-04-25 10:49 | 40.68081 | 22.85221 | 7828 ft | 275 kts | 32° |
| 2026-04-25 10:49 | 40.69707 | 22.86579 | 8460 ft | 278 kts | 32° |
| 2026-04-25 10:49 | 40.71344 | 22.87943 | 9158 ft | 278 kts | 32° |
| 2026-04-25 10:50 | 40.72984 | 22.89305 | 9852 ft | 280 kts | 32° |
| 2026-04-25 10:50 | 40.74649 | 22.90686 | 10369 ft | 288 kts | 32° |
| 2026-04-25 10:50 | 40.76407 | 22.92145 | 10533 ft | 309 kts | 32° |
| 2026-04-25 10:50 | 40.78259 | 22.93678 | 10683 ft | 328 kts | 32° |
| 2026-04-25 10:51 | 40.80250 | 22.95328 | 10828 ft | 347 kts | 32° |
| 2026-04-25 10:51 | 40.82330 | 22.97053 | 11152 ft | 358 kts | 32° |
| 2026-04-25 10:51 | 40.84451 | 22.98812 | 11669 ft | 362 kts | 32° |
| 2026-04-25 10:51 | 40.86596 | 23.00592 | 12246 ft | 365 kts | 32° |
| 2026-04-25 10:52 | 40.88755 | 23.02384 | 12846 ft | 368 kts | 32° |
| 2026-04-25 10:52 | 40.90934 | 23.04195 | 13435 ft | 372 kts | 32° |
| 2026-04-25 10:52 | 40.93164 | 23.06049 | 14023 ft | 375 kts | 32° |
| 2026-04-25 10:52 | 40.95354 | 23.07872 | 14565 ft | 378 kts | 32° |
| 2026-04-25 10:53 | 40.97583 | 23.09729 | 15141 ft | 380 kts | 32° |
| 2026-04-25 10:53 | 40.99831 | 23.11601 | 15736 ft | 383 kts | 32° |
| 2026-04-25 10:53 | 41.02097 | 23.13492 | 16279 ft | 387 kts | 33° |
| 2026-04-25 10:53 | 41.04384 | 23.15402 | 16839 ft | 390 kts | 32° |
| 2026-04-25 10:54 | 41.06685 | 23.17324 | 17444 ft | 392 kts | 32° |
| 2026-04-25 10:54 | 41.08244 | 23.18627 | 17835 ft | 393 kts | 32° |
| 2026-04-25 10:54 | 41.11322 | 23.21203 | 18522 ft | 398 kts | 33° |
| 2026-04-25 10:54 | 41.13673 | 23.23173 | 19001 ft | 400 kts | 33° |
| 2026-04-25 10:55 | 41.16033 | 23.25152 | 19480 ft | 402 kts | 33° |
| 2026-04-25 10:55 | 41.18406 | 23.27143 | 19951 ft | 405 kts | 33° |
| 2026-04-25 10:55 | 41.20793 | 23.29148 | 20409 ft | 408 kts | 33° |
| 2026-04-25 10:55 | 41.23197 | 23.31169 | 20862 ft | 410 kts | 33° |
| 2026-04-25 10:56 | 41.25616 | 23.33204 | 21313 ft | 413 kts | 33° |
| 2026-04-25 10:56 | 41.28053 | 23.35257 | 21723 ft | 416 kts | 33° |
| 2026-04-25 10:56 | 41.30503 | 23.37322 | 22142 ft | 418 kts | 33° |
| 2026-04-25 10:56 | 41.32968 | 23.39401 | 22555 ft | 421 kts | 33° |
| 2026-04-25 10:57 | 41.35445 | 23.41492 | 22950 ft | 424 kts | 33° |
| 2026-04-25 10:57 | 41.37999 | 23.43488 | 23339 ft | 427 kts | 25° |
| 2026-04-25 10:57 | 41.40816 | 23.44788 | 23669 ft | 432 kts | 14° |
| 2026-04-25 10:57 | 41.43800 | 23.45373 | 23988 ft | 436 kts | 3° |
| 2026-04-25 10:58 | 41.46835 | 23.45259 | 24383 ft | 437 kts | 358° |
| 2026-04-25 10:58 | 41.49873 | 23.44988 | 24774 ft | 438 kts | 357° |
| 2026-04-25 10:58 | 41.52913 | 23.44691 | 25105 ft | 440 kts | 357° |
| 2026-04-25 10:58 | 41.55972 | 23.44394 | 25433 ft | 441 kts | 357° |
| 2026-04-25 10:59 | 41.59043 | 23.44107 | 25764 ft | 442 kts | 357° |
| 2026-04-25 10:59 | 41.62113 | 23.43833 | 26110 ft | 443 kts | 357° |
| 2026-04-25 10:59 | 41.65193 | 23.43568 | 26416 ft | 444 kts | 357° |
| 2026-04-25 10:59 | 41.68283 | 23.43309 | 26713 ft | 446 kts | 357° |
| 2026-04-25 11:00 | 41.71383 | 23.43054 | 27004 ft | 447 kts | 358° |
| 2026-04-25 11:00 | 41.74496 | 23.42798 | 27289 ft | 449 kts | 358° |
| 2026-04-25 11:00 | 41.77617 | 23.42543 | 27582 ft | 450 kts | 357° |
| 2026-04-25 11:00 | 41.80742 | 23.42285 | 27932 ft | 450 kts | 357° |
| 2026-04-25 11:01 | 41.83863 | 23.42027 | 28344 ft | 448 kts | 357° |
| 2026-04-25 11:01 | 41.86965 | 23.41770 | 28812 ft | 446 kts | 357° |
| 2026-04-25 11:01 | 41.90053 | 23.41515 | 29268 ft | 443 kts | 357° |
| 2026-04-25 11:01 | 41.93125 | 23.41260 | 29675 ft | 442 kts | 358° |
| 2026-04-25 11:02 | 41.96190 | 23.41006 | 30059 ft | 441 kts | 358° |
| 2026-04-25 11:02 | 41.99245 | 23.40753 | 30416 ft | 439 kts | 357° |
| 2026-04-25 11:02 | 42.02288 | 23.40500 | 30794 ft | 437 kts | 357° |
| 2026-04-25 11:02 | 42.05318 | 23.40248 | 31145 ft | 435 kts | 357° |
| 2026-04-25 11:03 | 42.08334 | 23.39997 | 31443 ft | 434 kts | 357° |
| 2026-04-25 11:03 | 42.11344 | 23.39746 | 31737 ft | 433 kts | 358° |
| 2026-04-25 11:03 | 42.14348 | 23.39495 | 32059 ft | 432 kts | 358° |
| 2026-04-25 11:03 | 42.17301 | 23.39248 | 32370 ft | 430 kts | 357° |
| 2026-04-25 11:04 | 42.20290 | 23.38999 | 32643 ft | 430 kts | 357° |
| 2026-04-25 11:04 | 42.23268 | 23.38750 | 32984 ft | 428 kts | 357° |
| 2026-04-25 11:04 | 42.26229 | 23.38501 | 33334 ft | 426 kts | 357° |
| 2026-04-25 11:04 | 42.28223 | 23.38334 | 33559 ft | 424 kts | 357° |
| 2026-04-25 11:05 | 42.32121 | 23.38007 | 33930 ft | 423 kts | 357° |
| 2026-04-25 11:05 | 42.35063 | 23.37760 | 34047 ft | 425 kts | 357° |
| 2026-04-25 11:05 | 42.38024 | 23.37512 | 34052 ft | 426 kts | 357° |
| 2026-04-25 11:06 | 42.43919 | 23.37015 | 34064 ft | 422 kts | 357° |
| 2026-04-25 11:06 | 42.49760 | 23.36522 | 34064 ft | 420 kts | 357° |
| 2026-04-25 11:07 | 42.55575 | 23.36031 | 34076 ft | 418 kts | 357° |
| 2026-04-25 11:07 | 42.61377 | 23.35540 | 34074 ft | 417 kts | 357° |
| 2026-04-25 11:08 | 42.67174 | 23.35049 | 34077 ft | 418 kts | 357° |
| 2026-04-25 11:08 | 42.72976 | 23.34556 | 34078 ft | 418 kts | 357° |
| 2026-04-25 11:09 | 42.78798 | 23.34060 | 34086 ft | 420 kts | 357° |
| 2026-04-25 11:09 | 42.84634 | 23.33562 | 34075 ft | 421 kts | 357° |
| 2026-04-25 11:10 | 42.90489 | 23.33062 | 34049 ft | 422 kts | 357° |
| 2026-04-25 11:10 | 42.96360 | 23.32559 | 34070 ft | 423 kts | 356° |
| 2026-04-25 11:11 | 43.02239 | 23.32055 | 34061 ft | 424 kts | 356° |
| 2026-04-25 11:11 | 43.08122 | 23.31549 | 34064 ft | 424 kts | 356° |
| 2026-04-25 11:12 | 43.13965 | 23.31046 | 34055 ft | 423 kts | 356° |
| 2026-04-25 11:12 | 43.19839 | 23.30539 | 34063 ft | 423 kts | 356° |
| 2026-04-25 11:13 | 43.25703 | 23.30032 | 34052 ft | 422 kts | 356° |
| 2026-04-25 11:13 | 43.31548 | 23.29526 | 34052 ft | 420 kts | 356° |
| 2026-04-25 11:14 | 43.37368 | 23.29021 | 34054 ft | 418 kts | 356° |
| 2026-04-25 11:14 | 43.43168 | 23.28517 | 34058 ft | 417 kts | 355° |
| 2026-04-25 11:15 | 43.48954 | 23.28013 | 34055 ft | 416 kts | 356° |
| 2026-04-25 11:15 | 43.54731 | 23.27509 | 34059 ft | 415 kts | 355° |
| 2026-04-25 11:16 | 43.63382 | 23.26752 | 34052 ft | 415 kts | 355° |
| 2026-04-25 11:16 | 43.69148 | 23.26246 | 34054 ft | 415 kts | 355° |
| 2026-04-25 11:17 | 43.74918 | 23.25739 | 34054 ft | 416 kts | 355° |
| 2026-04-25 11:17 | 43.80705 | 23.25229 | 34060 ft | 417 kts | 355° |
| 2026-04-25 11:18 | 43.86515 | 23.24918 | 34053 ft | 419 kts | 358° |
| 2026-04-25 11:18 | 43.92354 | 23.25018 | 34052 ft | 420 kts | 359° |
| 2026-04-25 11:19 | 43.98204 | 23.25162 | 34053 ft | 421 kts | 359° |
| 2026-04-25 11:19 | 44.04067 | 23.25273 | 34049 ft | 421 kts | 359° |
| 2026-04-25 11:20 | 44.08939 | 23.25346 | 34049 ft | 421 kts | 359° |
| 2026-04-25 11:20 | 44.14800 | 23.25427 | 34056 ft | 421 kts | 359° |
| 2026-04-25 11:21 | 44.21609 | 23.25518 | 34043 ft | 421 kts | 358° |
| 2026-04-25 11:21 | 44.27454 | 23.25597 | 34043 ft | 420 kts | 358° |
| 2026-04-25 11:22 | 44.32348 | 23.25663 | 34043 ft | 419 kts | 358° |
| 2026-04-25 11:22 | 44.38182 | 23.25744 | 34044 ft | 419 kts | 358° |
| 2026-04-25 11:23 | 44.44010 | 23.25823 | 34036 ft | 419 kts | 358° |
| 2026-04-25 11:23 | 44.49831 | 23.25903 | 34044 ft | 418 kts | 358° |
| 2026-04-25 11:24 | 44.55647 | 23.25983 | 34052 ft | 418 kts | 358° |
| 2026-04-25 11:24 | 44.61432 | 23.26062 | 34038 ft | 418 kts | 358° |
| 2026-04-25 11:25 | 44.67251 | 23.26142 | 34027 ft | 418 kts | 358° |
| 2026-04-25 11:25 | 44.73067 | 23.26223 | 34033 ft | 418 kts | 358° |
| 2026-04-25 11:26 | 44.78887 | 23.26304 | 34038 ft | 419 kts | 358° |
| 2026-04-25 11:26 | 44.84719 | 23.26384 | 34033 ft | 419 kts | 358° |
| 2026-04-25 11:27 | 44.90554 | 23.26465 | 34028 ft | 419 kts | 358° |
| 2026-04-25 11:27 | 44.95440 | 23.26534 | 34034 ft | 419 kts | 358° |
| 2026-04-25 11:28 | 45.02226 | 23.26628 | 34035 ft | 419 kts | 358° |
| 2026-04-25 11:28 | 45.08060 | 23.26710 | 34028 ft | 419 kts | 358° |
| 2026-04-25 11:29 | 45.13894 | 23.26792 | 34023 ft | 419 kts | 358° |
| 2026-04-25 11:29 | 45.19716 | 23.26874 | 34038 ft | 419 kts | 357° |
| 2026-04-25 11:30 | 45.25541 | 23.26955 | 34024 ft | 418 kts | 357° |
| 2026-04-25 11:30 | 45.31351 | 23.27038 | 34002 ft | 417 kts | 357° |
| 2026-04-25 11:31 | 45.37140 | 23.27119 | 34022 ft | 415 kts | 357° |
| 2026-04-25 11:31 | 45.42918 | 23.27202 | 34024 ft | 415 kts | 357° |
| 2026-04-25 11:32 | 45.48695 | 23.27283 | 34009 ft | 415 kts | 357° |
| 2026-04-25 11:32 | 45.54455 | 23.27365 | 34020 ft | 414 kts | 357° |
| 2026-04-25 11:33 | 45.60215 | 23.27447 | 34020 ft | 415 kts | 357° |
| 2026-04-25 11:33 | 45.65992 | 23.27529 | 34005 ft | 415 kts | 357° |
| 2026-04-25 11:34 | 45.71766 | 23.27612 | 34016 ft | 415 kts | 357° |
| 2026-04-25 11:34 | 45.77549 | 23.27695 | 34017 ft | 416 kts | 357° |
| 2026-04-25 11:35 | 45.83335 | 23.27778 | 34010 ft | 417 kts | 356° |
| 2026-04-25 11:35 | 45.89135 | 23.27861 | 34004 ft | 417 kts | 356° |
| 2026-04-25 11:36 | 45.94949 | 23.27967 | 34001 ft | 418 kts | 357° |
| 2026-04-25 11:36 | 46.00762 | 23.28142 | 33997 ft | 418 kts | 357° |
| 2026-04-25 11:37 | 46.06582 | 23.28325 | 33992 ft | 418 kts | 357° |
| 2026-04-25 11:37 | 46.12393 | 23.28502 | 33993 ft | 417 kts | 357° |
| 2026-04-25 11:38 | 46.18196 | 23.28674 | 33983 ft | 416 kts | 356° |
| 2026-04-25 11:38 | 46.23990 | 23.28845 | 33993 ft | 416 kts | 356° |
| 2026-04-25 11:39 | 46.29776 | 23.29016 | 33989 ft | 416 kts | 356° |
| 2026-04-25 11:39 | 46.35529 | 23.29186 | 33984 ft | 416 kts | 356° |
| 2026-04-25 11:40 | 46.41319 | 23.29358 | 33982 ft | 416 kts | 356° |
| 2026-04-25 11:40 | 46.47114 | 23.29530 | 33977 ft | 417 kts | 356° |
| 2026-04-25 11:41 | 46.52916 | 23.29703 | 33973 ft | 417 kts | 356° |
| 2026-04-25 11:41 | 46.58718 | 23.29876 | 33977 ft | 416 kts | 356° |
| 2026-04-25 11:42 | 46.64506 | 23.30049 | 33963 ft | 416 kts | 356° |
| 2026-04-25 11:42 | 46.70288 | 23.30223 | 33984 ft | 416 kts | 356° |
| 2026-04-25 11:43 | 46.76070 | 23.30397 | 33967 ft | 416 kts | 356° |
| 2026-04-25 11:43 | 46.81857 | 23.30571 | 33968 ft | 416 kts | 356° |
| 2026-04-25 11:44 | 46.87639 | 23.30745 | 33970 ft | 416 kts | 356° |
| 2026-04-25 11:44 | 46.93432 | 23.30920 | 33972 ft | 417 kts | 356° |
| 2026-04-25 11:45 | 46.99229 | 23.31097 | 33972 ft | 416 kts | 356° |
| 2026-04-25 11:45 | 47.05028 | 23.31273 | 33966 ft | 417 kts | 356° |
| 2026-04-25 11:46 | 47.10829 | 23.31449 | 33986 ft | 417 kts | 356° |
| 2026-04-25 11:46 | 47.16629 | 23.31626 | 33976 ft | 417 kts | 356° |
| 2026-04-25 11:47 | 47.22438 | 23.31804 | 33964 ft | 417 kts | 355° |
| 2026-04-25 11:47 | 47.28186 | 23.31981 | 33957 ft | 416 kts | 356° |
| 2026-04-25 11:48 | 47.33965 | 23.32159 | 33991 ft | 415 kts | 355° |
| 2026-04-25 11:48 | 47.39750 | 23.32336 | 33967 ft | 415 kts | 355° |
| 2026-04-25 11:49 | 47.45525 | 23.32514 | 33957 ft | 415 kts | 355° |
| 2026-04-25 11:49 | 47.51300 | 23.32693 | 33958 ft | 415 kts | 355° |
| 2026-04-25 11:50 | 47.57067 | 23.32872 | 33969 ft | 414 kts | 355° |
| 2026-04-25 11:50 | 47.62830 | 23.33051 | 33962 ft | 414 kts | 355° |
| 2026-04-25 11:51 | 47.68586 | 23.33230 | 33967 ft | 414 kts | 355° |
| 2026-04-25 11:51 | 47.74342 | 23.33409 | 33957 ft | 414 kts | 355° |
| 2026-04-25 11:52 | 47.80097 | 23.33589 | 33977 ft | 414 kts | 355° |
| 2026-04-25 11:52 | 47.85863 | 23.33770 | 33964 ft | 414 kts | 355° |
| 2026-04-25 11:53 | 47.91626 | 23.33951 | 33960 ft | 414 kts | 355° |
| 2026-04-25 11:53 | 47.97388 | 23.34132 | 33960 ft | 414 kts | 355° |
| 2026-04-25 11:54 | 48.03148 | 23.34295 | 33960 ft | 413 kts | 353° |
| 2026-04-25 11:55 | 48.11728 | 23.33827 | 33961 ft | 411 kts | 351° |
| 2026-04-25 11:55 | 48.17437 | 23.33404 | 33953 ft | 411 kts | 351° |
| 2026-04-25 11:56 | 48.23141 | 23.33013 | 33957 ft | 410 kts | 351° |
| 2026-04-25 11:56 | 48.28810 | 23.32644 | 33958 ft | 411 kts | 351° |
| 2026-04-25 11:57 | 48.34522 | 23.32279 | 33957 ft | 411 kts | 351° |
| 2026-04-25 11:57 | 48.40231 | 23.31914 | 33954 ft | 411 kts | 351° |
| 2026-04-25 11:58 | 48.45948 | 23.31548 | 33940 ft | 411 kts | 351° |
| 2026-04-25 11:58 | 48.51666 | 23.31182 | 33946 ft | 412 kts | 351° |
| 2026-04-25 11:59 | 48.57395 | 23.30811 | 33951 ft | 413 kts | 351° |
| 2026-04-25 11:59 | 48.63135 | 23.30442 | 33938 ft | 412 kts | 351° |
| 2026-04-25 12:00 | 48.71723 | 23.29887 | 33937 ft | 411 kts | 351° |
| 2026-04-25 12:01 | 48.80296 | 23.29330 | 33933 ft | 411 kts | 351° |
| 2026-04-25 12:01 | 48.86008 | 23.28958 | 33945 ft | 411 kts | 351° |
| 2026-04-25 12:02 | 48.94574 | 23.28399 | 33965 ft | 410 kts | 351° |
| 2026-04-25 12:02 | 49.00281 | 23.28025 | 33947 ft | 410 kts | 350° |
| 2026-04-25 12:03 | 49.05979 | 23.27651 | 33936 ft | 410 kts | 350° |
| 2026-04-25 12:03 | 49.11683 | 23.27275 | 33935 ft | 410 kts | 350° |
| 2026-04-25 12:04 | 49.17376 | 23.26900 | 33920 ft | 410 kts | 350° |
| 2026-04-25 12:04 | 49.23070 | 23.26523 | 33926 ft | 410 kts | 350° |
| 2026-04-25 12:05 | 49.28756 | 23.26147 | 33913 ft | 409 kts | 350° |
| 2026-04-25 12:05 | 49.34451 | 23.25768 | 33918 ft | 409 kts | 350° |
| 2026-04-25 12:06 | 49.40150 | 23.25388 | 33909 ft | 411 kts | 350° |
| 2026-04-25 12:06 | 49.45830 | 23.25008 | 33918 ft | 412 kts | 349° |
| 2026-04-25 12:07 | 49.51559 | 23.24626 | 33921 ft | 413 kts | 349° |
| 2026-04-25 12:07 | 49.57300 | 23.24241 | 33908 ft | 413 kts | 349° |
| 2026-04-25 12:08 | 49.62114 | 23.23918 | 33913 ft | 413 kts | 349° |
| 2026-04-25 12:08 | 49.67867 | 23.23531 | 33943 ft | 414 kts | 349° |
| 2026-04-25 12:09 | 49.73622 | 23.23142 | 33914 ft | 414 kts | 349° |
| 2026-04-25 12:09 | 49.79339 | 23.22756 | 33904 ft | 414 kts | 349° |
| 2026-04-25 12:10 | 49.85093 | 23.22366 | 33900 ft | 414 kts | 349° |
| 2026-04-25 12:10 | 49.90842 | 23.21976 | 33905 ft | 413 kts | 349° |
| 2026-04-25 12:11 | 49.96595 | 23.21583 | 33907 ft | 414 kts | 350° |
| 2026-04-25 12:11 | 50.02353 | 23.21205 | 33896 ft | 415 kts | 351° |
| 2026-04-25 12:12 | 50.08164 | 23.21511 | 33904 ft | 420 kts | 355° |
| 2026-04-25 12:12 | 50.13996 | 23.22101 | 33894 ft | 420 kts | 355° |
| 2026-04-25 12:13 | 50.19834 | 23.22667 | 33878 ft | 421 kts | 357° |
| 2026-04-25 12:13 | 50.25696 | 23.23191 | 33884 ft | 423 kts | 356° |
| 2026-04-25 12:14 | 50.31576 | 23.23699 | 33890 ft | 424 kts | 356° |
| 2026-04-25 12:14 | 50.37486 | 23.24205 | 33889 ft | 426 kts | 356° |
| 2026-04-25 12:15 | 50.43421 | 23.24714 | 33876 ft | 429 kts | 358° |
| 2026-04-25 12:15 | 50.49387 | 23.25227 | 33883 ft | 430 kts | 358° |
| 2026-04-25 12:16 | 50.55378 | 23.25746 | 33871 ft | 432 kts | 358° |
| 2026-04-25 12:16 | 50.61346 | 23.26264 | 33869 ft | 433 kts | 358° |
| 2026-04-25 12:17 | 50.67367 | 23.26787 | 33878 ft | 434 kts | 359° |
| 2026-04-25 12:17 | 50.73405 | 23.27313 | 33857 ft | 435 kts | 359° |
| 2026-04-25 12:18 | 50.79441 | 23.27841 | 33851 ft | 434 kts | 359° |
| 2026-04-25 12:18 | 50.85471 | 23.28370 | 33854 ft | 434 kts | 359° |
| 2026-04-25 12:19 | 50.94499 | 23.29162 | 33843 ft | 433 kts | 358° |
| 2026-04-25 12:20 | 51.00506 | 23.29692 | 33841 ft | 432 kts | 358° |
| 2026-04-25 12:20 | 51.06496 | 23.30221 | 33847 ft | 431 kts | 358° |
| 2026-04-25 12:21 | 51.12478 | 23.30750 | 33840 ft | 430 kts | 358° |
| 2026-04-25 12:21 | 51.18445 | 23.31280 | 33833 ft | 429 kts | 358° |
| 2026-04-25 12:22 | 51.24365 | 23.31807 | 33832 ft | 429 kts | 358° |
| 2026-04-25 12:22 | 51.30314 | 23.32337 | 33830 ft | 428 kts | 358° |
| 2026-04-25 12:23 | 51.36264 | 23.32869 | 33826 ft | 428 kts | 358° |
| 2026-04-25 12:23 | 51.42214 | 23.33403 | 33827 ft | 429 kts | 357° |
| 2026-04-25 12:24 | 51.48171 | 23.33939 | 33823 ft | 429 kts | 357° |
| 2026-04-25 12:24 | 51.54124 | 23.34475 | 33815 ft | 428 kts | 357° |
| 2026-04-25 12:25 | 51.60078 | 23.35014 | 33811 ft | 429 kts | 357° |
| 2026-04-25 12:25 | 51.66049 | 23.35553 | 33910 ft | 432 kts | 357° |
| 2026-04-25 12:25 | 51.69049 | 23.35825 | 34103 ft | 432 kts | 356° |
| 2026-04-25 12:26 | 51.72051 | 23.36099 | 34338 ft | 432 kts | 356° |
| 2026-04-25 12:26 | 51.75051 | 23.36373 | 34555 ft | 431 kts | 357° |
| 2026-04-25 12:26 | 51.78050 | 23.36647 | 34751 ft | 432 kts | 357° |
| 2026-04-25 12:26 | 51.81048 | 23.36921 | 34956 ft | 431 kts | 357° |
| 2026-04-25 12:27 | 51.84038 | 23.37195 | 35189 ft | 431 kts | 357° |
| 2026-04-25 12:27 | 51.87033 | 23.37469 | 35400 ft | 431 kts | 357° |
| 2026-04-25 12:27 | 51.90023 | 23.37743 | 35599 ft | 431 kts | 356° |
| 2026-04-25 12:27 | 51.93012 | 23.38018 | 35773 ft | 430 kts | 356° |
| 2026-04-25 12:28 | 51.96017 | 23.38292 | 35774 ft | 433 kts | 356° |
| 2026-04-25 12:28 | 52.02029 | 23.38847 | 35780 ft | 431 kts | 356° |
| 2026-04-25 12:29 | 52.08004 | 23.39401 | 35781 ft | 429 kts | 356° |
| 2026-04-25 12:29 | 52.13938 | 23.39950 | 35766 ft | 426 kts | 356° |
| 2026-04-25 12:30 | 52.19856 | 23.40497 | 35776 ft | 426 kts | 356° |
| 2026-04-25 12:30 | 52.25767 | 23.41019 | 35770 ft | 425 kts | 356° |
| 2026-04-25 12:31 | 52.31676 | 23.41532 | 35764 ft | 425 kts | 356° |
| 2026-04-25 12:31 | 52.37597 | 23.42049 | 35766 ft | 427 kts | 356° |
| 2026-04-25 12:32 | 52.43540 | 23.42570 | 35761 ft | 429 kts | 356° |
| 2026-04-25 12:32 | 52.49474 | 23.43095 | 35758 ft | 431 kts | 356° |
| 2026-04-25 12:33 | 52.55463 | 23.43627 | 35756 ft | 432 kts | 356° |
| 2026-04-25 12:33 | 52.61467 | 23.44162 | 35749 ft | 433 kts | 356° |
| 2026-04-25 12:34 | 52.67485 | 23.44699 | 35774 ft | 434 kts | 356° |
| 2026-04-25 12:34 | 52.73520 | 23.45238 | 35746 ft | 434 kts | 356° |
| 2026-04-25 12:35 | 52.79553 | 23.45780 | 35735 ft | 434 kts | 356° |
| 2026-04-25 12:35 | 52.85588 | 23.46324 | 35737 ft | 434 kts | 356° |
| 2026-04-25 12:36 | 52.91614 | 23.46868 | 35760 ft | 433 kts | 356° |
| 2026-04-25 12:36 | 52.97636 | 23.47412 | 35738 ft | 433 kts | 356° |
| 2026-04-25 12:37 | 53.03653 | 23.47958 | 35719 ft | 433 kts | 356° |
| 2026-04-25 12:37 | 53.09662 | 23.48505 | 35722 ft | 432 kts | 356° |
| 2026-04-25 12:38 | 53.15663 | 23.49052 | 35710 ft | 432 kts | 356° |
| 2026-04-25 12:38 | 53.21659 | 23.49600 | 35718 ft | 432 kts | 356° |
| 2026-04-25 12:39 | 53.27661 | 23.50150 | 35714 ft | 432 kts | 356° |
| 2026-04-25 12:39 | 53.33660 | 23.50702 | 35703 ft | 432 kts | 356° |
| 2026-04-25 12:40 | 53.39653 | 23.51256 | 35701 ft | 431 kts | 356° |
| 2026-04-25 12:40 | 53.45649 | 23.51810 | 35720 ft | 432 kts | 355° |
| 2026-04-25 12:41 | 53.51656 | 23.52366 | 35696 ft | 432 kts | 355° |
| 2026-04-25 12:41 | 53.57665 | 23.52925 | 35692 ft | 432 kts | 355° |
| 2026-04-25 12:42 | 53.63635 | 23.53482 | 35611 ft | 434 kts | 355° |
| 2026-04-25 12:42 | 53.69669 | 23.54047 | 35091 ft | 432 kts | 355° |
| 2026-04-25 12:42 | 53.72662 | 23.54330 | 34844 ft | 430 kts | 355° |
| 2026-04-25 12:43 | 53.75647 | 23.54611 | 34728 ft | 429 kts | 355° |
| 2026-04-25 12:43 | 53.84618 | 23.55480 | 34684 ft | 434 kts | 356° |
| 2026-04-25 12:44 | 53.90643 | 23.56527 | 34677 ft | 436 kts | 359° |
| 2026-04-25 12:45 | 53.99688 | 23.58318 | 34694 ft | 436 kts | 358° |
| 2026-04-25 12:45 | 54.08731 | 23.60024 | 34671 ft | 435 kts | 358° |
| 2026-04-25 12:46 | 54.14738 | 23.61137 | 34676 ft | 434 kts | 358° |
| 2026-04-25 12:46 | 54.20733 | 23.62247 | 34665 ft | 433 kts | 358° |
| 2026-04-25 12:47 | 54.26717 | 23.63359 | 34667 ft | 432 kts | 358° |
| 2026-04-25 12:47 | 54.32686 | 23.64472 | 34667 ft | 431 kts | 358° |
| 2026-04-25 12:48 | 54.38639 | 23.65586 | 34660 ft | 430 kts | 358° |
| 2026-04-25 12:48 | 54.44584 | 23.66702 | 34663 ft | 429 kts | 358° |
| 2026-04-25 12:49 | 54.50512 | 23.67818 | 34706 ft | 428 kts | 358° |
| 2026-04-25 12:49 | 54.56444 | 23.68935 | 34671 ft | 429 kts | 357° |
| 2026-04-25 12:50 | 54.62389 | 23.70060 | 34651 ft | 429 kts | 357° |
| 2026-04-25 12:50 | 54.68325 | 23.71187 | 34653 ft | 430 kts | 357° |
| 2026-04-25 12:51 | 54.74275 | 23.72320 | 34653 ft | 430 kts | 358° |
| 2026-04-25 12:51 | 54.80227 | 23.73456 | 34652 ft | 432 kts | 357° |
| 2026-04-25 12:52 | 54.86204 | 23.74600 | 34661 ft | 433 kts | 357° |
| 2026-04-25 12:52 | 54.92197 | 23.75752 | 34662 ft | 433 kts | 357° |
| 2026-04-25 12:53 | 54.98192 | 23.76907 | 34653 ft | 434 kts | 357° |
| 2026-04-25 12:53 | 55.04156 | 23.78061 | 34707 ft | 434 kts | 357° |
| 2026-04-25 12:54 | 55.10174 | 23.79226 | 34663 ft | 436 kts | 357° |
| 2026-04-25 12:54 | 55.16208 | 23.80400 | 34645 ft | 436 kts | 357° |
| 2026-04-25 12:55 | 55.20247 | 23.81188 | 34637 ft | 437 kts | 357° |
| 2026-04-25 12:55 | 55.28278 | 23.82760 | 34632 ft | 436 kts | 357° |
| 2026-04-25 12:56 | 55.34320 | 23.83944 | 34630 ft | 437 kts | 357° |
| 2026-04-25 12:56 | 55.40367 | 23.85134 | 34618 ft | 438 kts | 357° |
| 2026-04-25 12:57 | 55.45397 | 23.86127 | 34617 ft | 438 kts | 357° |
| 2026-04-25 12:57 | 55.51454 | 23.87327 | 34607 ft | 438 kts | 357° |
| 2026-04-25 12:58 | 55.57512 | 23.88530 | 34656 ft | 438 kts | 357° |
| 2026-04-25 12:58 | 55.63587 | 23.89738 | 34607 ft | 440 kts | 357° |
| 2026-04-25 12:59 | 55.69679 | 23.90955 | 34588 ft | 441 kts | 358° |
| 2026-04-25 12:59 | 55.75789 | 23.92180 | 34585 ft | 442 kts | 358° |
| 2026-04-25 13:00 | 55.80871 | 23.93202 | 34576 ft | 442 kts | 358° |
| 2026-04-25 13:00 | 55.88030 | 23.94646 | 34590 ft | 444 kts | 358° |
| 2026-04-25 13:01 | 55.94181 | 23.95889 | 34570 ft | 445 kts | 358° |
| 2026-04-25 13:01 | 56.00347 | 23.97141 | 34563 ft | 446 kts | 358° |
| 2026-04-25 13:02 | 56.06520 | 23.98400 | 34549 ft | 447 kts | 358° |
| 2026-04-25 13:02 | 56.12710 | 23.99773 | 34574 ft | 450 kts | 0° |
| 2026-04-25 13:03 | 56.18908 | 24.01601 | 34540 ft | 453 kts | 1° |
| 2026-04-25 13:03 | 56.25124 | 24.03511 | 34519 ft | 454 kts | 1° |
| 2026-04-25 13:04 | 56.31352 | 24.05377 | 34531 ft | 453 kts | 1° |
| 2026-04-25 13:04 | 56.37582 | 24.07210 | 34509 ft | 454 kts | 1° |
| 2026-04-25 13:05 | 56.43806 | 24.09035 | 34513 ft | 453 kts | 1° |
| 2026-04-25 13:05 | 56.50033 | 24.10866 | 34491 ft | 453 kts | 1° |
| 2026-04-25 13:06 | 56.56250 | 24.12701 | 34498 ft | 453 kts | 1° |
| 2026-04-25 13:06 | 56.62462 | 24.14542 | 34494 ft | 452 kts | 1° |
| 2026-04-25 13:07 | 56.68672 | 24.16388 | 34516 ft | 453 kts | 1° |
| 2026-04-25 13:07 | 56.74854 | 24.18231 | 34489 ft | 453 kts | 1° |
| 2026-04-25 13:08 | 56.81078 | 24.20094 | 34472 ft | 453 kts | 1° |
| 2026-04-25 13:08 | 56.87302 | 24.21963 | 34474 ft | 453 kts | 1° |
| 2026-04-25 13:09 | 56.93529 | 24.23840 | 34471 ft | 454 kts | 1° |
| 2026-04-25 13:09 | 56.99760 | 24.25723 | 34473 ft | 455 kts | 2° |
| 2026-04-25 13:10 | 57.06005 | 24.27617 | 34469 ft | 455 kts | 2° |
| 2026-04-25 13:10 | 57.12258 | 24.29521 | 34463 ft | 456 kts | 2° |
| 2026-04-25 13:11 | 57.18511 | 24.31431 | 34458 ft | 456 kts | 2° |
| 2026-04-25 13:11 | 57.24779 | 24.33352 | 34487 ft | 457 kts | 2° |
| 2026-04-25 13:12 | 57.31055 | 24.35282 | 34470 ft | 458 kts | 2° |
| 2026-04-25 13:12 | 57.36319 | 24.36907 | 34460 ft | 458 kts | 2° |
| 2026-04-25 13:13 | 57.43631 | 24.39172 | 34458 ft | 458 kts | 2° |
| 2026-04-25 13:13 | 57.49926 | 24.41128 | 34461 ft | 459 kts | 2° |
| 2026-04-25 13:14 | 57.56236 | 24.43095 | 34467 ft | 460 kts | 3° |
| 2026-04-25 13:14 | 57.62555 | 24.45074 | 34462 ft | 461 kts | 3° |
| 2026-04-25 13:15 | 57.68880 | 24.47061 | 34458 ft | 461 kts | 3° |
| 2026-04-25 13:15 | 57.75205 | 24.49055 | 34460 ft | 461 kts | 3° |
| 2026-04-25 13:16 | 57.81526 | 24.51055 | 34474 ft | 461 kts | 4° |
| 2026-04-25 13:16 | 57.87854 | 24.53064 | 34472 ft | 461 kts | 4° |
| 2026-04-25 13:17 | 57.94180 | 24.55079 | 34462 ft | 461 kts | 4° |
| 2026-04-25 13:17 | 58.00499 | 24.57100 | 34465 ft | 461 kts | 4° |
| 2026-04-25 13:18 | 58.06815 | 24.59126 | 34451 ft | 461 kts | 4° |
| 2026-04-25 13:18 | 58.13150 | 24.61166 | 34463 ft | 461 kts | 4° |
| 2026-04-25 13:19 | 58.19480 | 24.63212 | 34461 ft | 462 kts | 4° |
| 2026-04-25 13:19 | 58.24755 | 24.64922 | 34445 ft | 463 kts | 4° |
| 2026-04-25 13:20 | 58.32167 | 24.67336 | 34451 ft | 462 kts | 4° |
| 2026-04-25 13:20 | 58.38503 | 24.69406 | 34474 ft | 462 kts | 5° |
| 2026-04-25 13:21 | 58.44788 | 24.71468 | 34473 ft | 461 kts | 5° |
| 2026-04-25 13:21 | 58.51106 | 24.73547 | 34459 ft | 460 kts | 5° |
| 2026-04-25 13:22 | 58.57424 | 24.75632 | 34057 ft | 466 kts | 5° |
| 2026-04-25 13:22 | 58.60615 | 24.76686 | 33513 ft | 465 kts | 4° |
| 2026-04-25 13:23 | 58.67008 | 24.78811 | 32094 ft | 467 kts | 4° |
| 2026-04-25 13:23 | 58.70214 | 24.79879 | 31373 ft | 467 kts | 4° |
| 2026-04-25 13:23 | 58.73414 | 24.80949 | 30678 ft | 467 kts | 4° |
| 2026-04-25 13:23 | 58.76617 | 24.82021 | 30101 ft | 465 kts | 4° |
| 2026-04-25 13:24 | 58.79781 | 24.83086 | 29608 ft | 460 kts | 4° |
| 2026-04-25 13:24 | 58.82924 | 24.84145 | 29024 ft | 456 kts | 4° |
| 2026-04-25 13:24 | 58.86036 | 24.85194 | 28510 ft | 451 kts | 4° |
| 2026-04-25 13:24 | 58.89107 | 24.86230 | 27996 ft | 445 kts | 4° |
| 2026-04-25 13:25 | 58.92142 | 24.87256 | 27509 ft | 441 kts | 4° |
| 2026-04-25 13:25 | 58.95145 | 24.88270 | 27056 ft | 437 kts | 4° |
| 2026-04-25 13:25 | 58.98130 | 24.89281 | 26526 ft | 434 kts | 5° |
| 2026-04-25 13:25 | 59.01097 | 24.90283 | 26031 ft | 431 kts | 5° |
| 2026-04-25 13:26 | 59.04043 | 24.91282 | 25552 ft | 428 kts | 5° |
| 2026-04-25 13:26 | 59.06966 | 24.92275 | 25076 ft | 425 kts | 5° |
| 2026-04-25 13:26 | 59.09875 | 24.93266 | 24599 ft | 423 kts | 5° |
| 2026-04-25 13:26 | 59.12764 | 24.94253 | 24150 ft | 421 kts | 5° |
| 2026-04-25 13:27 | 59.15646 | 24.95238 | 23681 ft | 419 kts | 5° |
| 2026-04-25 13:27 | 59.18512 | 24.96220 | 23219 ft | 417 kts | 5° |
| 2026-04-25 13:27 | 59.21366 | 24.97199 | 22694 ft | 417 kts | 6° |
| 2026-04-25 13:27 | 59.24218 | 24.98179 | 22164 ft | 415 kts | 6° |
| 2026-04-25 13:28 | 59.27045 | 24.99154 | 21708 ft | 411 kts | 6° |
| 2026-04-25 13:28 | 59.27959 | 24.99470 | 21553 ft | 410 kts | 6° |
| 2026-04-25 13:28 | 59.32640 | 25.01088 | 20785 ft | 405 kts | 6° |
| 2026-04-25 13:28 | 59.35405 | 25.02046 | 20315 ft | 403 kts | 6° |
| 2026-04-25 13:29 | 59.38159 | 25.03001 | 19863 ft | 400 kts | 6° |
| 2026-04-25 13:29 | 59.40895 | 25.03950 | 19415 ft | 398 kts | 6° |
| 2026-04-25 13:29 | 59.43615 | 25.04897 | 18962 ft | 396 kts | 6° |
| 2026-04-25 13:30 | 59.49018 | 25.06780 | 18071 ft | 392 kts | 6° |
| 2026-04-25 13:30 | 59.51698 | 25.07717 | 17625 ft | 391 kts | 6° |
| 2026-04-25 13:30 | 59.54335 | 25.08640 | 17128 ft | 389 kts | 6° |
| 2026-04-25 13:31 | 59.59636 | 25.10501 | 16210 ft | 384 kts | 6° |
| 2026-04-25 13:31 | 59.62256 | 25.11422 | 15752 ft | 382 kts | 6° |
| 2026-04-25 13:31 | 59.64865 | 25.12342 | 15311 ft | 379 kts | 6° |
| 2026-04-25 13:31 | 59.67453 | 25.13256 | 14875 ft | 377 kts | 6° |
| 2026-04-25 13:32 | 59.70028 | 25.14166 | 14417 ft | 375 kts | 6° |
| 2026-04-25 13:32 | 59.72584 | 25.15070 | 13995 ft | 373 kts | 6° |
| 2026-04-25 13:32 | 59.75133 | 25.15974 | 13560 ft | 371 kts | 6° |
| 2026-04-25 13:32 | 59.77663 | 25.16872 | 13130 ft | 368 kts | 6° |
| 2026-04-25 13:33 | 59.80181 | 25.17767 | 12696 ft | 365 kts | 6° |
| 2026-04-25 13:33 | 59.82646 | 25.18707 | 12569 ft | 357 kts | 10° |
| 2026-04-25 13:33 | 59.84977 | 25.20332 | 12350 ft | 353 kts | 21° |
| 2026-04-25 13:33 | 59.85726 | 25.21002 | 12299 ft | 350 kts | 21° |
| 2026-04-25 13:34 | 59.89353 | 25.24211 | 12020 ft | 335 kts | 18° |
| 2026-04-25 13:34 | 59.91573 | 25.25102 | 11757 ft | 321 kts | 354° |
| 2026-04-25 13:34 | 59.93780 | 25.24831 | 11491 ft | 316 kts | 351° |
| 2026-04-25 13:34 | 59.95968 | 25.24489 | 11177 ft | 315 kts | 351° |
| 2026-04-25 13:35 | 59.98144 | 25.24144 | 10843 ft | 313 kts | 351° |
| 2026-04-25 13:35 | 60.00315 | 25.23809 | 10527 ft | 312 kts | 352° |
| 2026-04-25 13:35 | 60.02475 | 25.23485 | 10198 ft | 311 kts | 352° |
| 2026-04-25 13:35 | 60.04627 | 25.23170 | 9883 ft | 309 kts | 352° |
| 2026-04-25 13:36 | 60.06767 | 25.22859 | 9570 ft | 308 kts | 352° |
| 2026-04-25 13:36 | 60.08878 | 25.22557 | 9445 ft | 300 kts | 352° |
| 2026-04-25 13:36 | 60.10937 | 25.22264 | 9310 ft | 292 kts | 352° |
| 2026-04-25 13:36 | 60.12925 | 25.21981 | 9310 ft | 281 kts | 352° |
| 2026-04-25 13:37 | 60.14840 | 25.21707 | 8854 ft | 279 kts | 352° |
| 2026-04-25 13:37 | 60.16778 | 25.21426 | 8441 ft | 278 kts | 352° |
| 2026-04-25 13:37 | 60.18680 | 25.21154 | 8170 ft | 268 kts | 352° |
| 2026-04-25 13:37 | 60.20535 | 25.20888 | 8116 ft | 269 kts | 352° |
| 2026-04-25 13:38 | 60.22402 | 25.20618 | 8102 ft | 268 kts | 352° |
| 2026-04-25 13:38 | 60.24256 | 25.20351 | 8095 ft | 265 kts | 352° |
| 2026-04-25 13:38 | 60.26080 | 25.20089 | 8085 ft | 260 kts | 352° |
| 2026-04-25 13:38 | 60.27847 | 25.19838 | 8076 ft | 249 kts | 352° |
| 2026-04-25 13:39 | 60.29531 | 25.19598 | 8076 ft | 237 kts | 352° |
| 2026-04-25 13:39 | 60.31146 | 25.19706 | 8070 ft | 233 kts | 15° |
| 2026-04-25 13:39 | 60.32507 | 25.21445 | 8093 ft | 239 kts | 40° |
| 2026-04-25 13:39 | 60.33692 | 25.23957 | 7731 ft | 252 kts | 45° |
| 2026-04-25 13:40 | 60.34855 | 25.26615 | 7399 ft | 251 kts | 46° |
| 2026-04-25 13:40 | 60.36005 | 25.29236 | 7097 ft | 247 kts | 45° |
| 2026-04-25 13:40 | 60.37125 | 25.31776 | 6813 ft | 244 kts | 45° |
| 2026-04-25 13:40 | 60.38264 | 25.34339 | 6519 ft | 242 kts | 45° |
| 2026-04-25 13:41 | 60.39394 | 25.36869 | 6251 ft | 243 kts | 44° |
| 2026-04-25 13:41 | 60.40563 | 25.39366 | 5999 ft | 244 kts | 35° |
| 2026-04-25 13:41 | 60.42066 | 25.40639 | 5678 ft | 237 kts | 359° |
| 2026-04-25 13:41 | 60.43640 | 25.40046 | 5335 ft | 229 kts | 329° |
| 2026-04-25 13:42 | 60.44859 | 25.38025 | 4979 ft | 223 kts | 305° |
| 2026-04-25 13:42 | 60.45530 | 25.35261 | 4629 ft | 218 kts | 283° |
| 2026-04-25 13:42 | 60.45817 | 25.32307 | 4312 ft | 215 kts | 280° |
| 2026-04-25 13:42 | 60.46071 | 25.29363 | 4090 ft | 207 kts | 275° |
| 2026-04-25 13:43 | 60.45765 | 25.26699 | 4006 ft | 191 kts | 236° |
| 2026-04-25 13:43 | 60.44952 | 25.24643 | 3744 ft | 183 kts | 239° |
| 2026-04-25 13:43 | 60.44244 | 25.22568 | 3519 ft | 177 kts | 234° |
| 2026-04-25 13:43 | 60.43706 | 25.21305 | 3364 ft | 175 kts | 231° |
| 2026-04-25 13:44 | 60.42613 | 25.18895 | 3034 ft | 175 kts | 231° |
| 2026-04-25 13:44 | 60.42055 | 25.17674 | 2879 ft | 174 kts | 231° |
| 2026-04-25 13:44 | 60.41250 | 25.15908 | 2638 ft | 173 kts | 231° |
| 2026-04-25 13:44 | 60.40428 | 25.14106 | 2390 ft | 169 kts | 231° |
| 2026-04-25 13:45 | 60.39669 | 25.12443 | 2165 ft | 157 kts | 231° |
| 2026-04-25 13:45 | 60.38938 | 25.10835 | 1956 ft | 154 kts | 231° |
| 2026-04-25 13:45 | 60.38231 | 25.09279 | 1749 ft | 149 kts | 231° |
| 2026-04-25 13:45 | 60.37536 | 25.07750 | 1534 ft | 147 kts | 231° |
| 2026-04-25 13:46 | 60.36840 | 25.06220 | 1346 ft | 148 kts | 231° |
| 2026-04-25 13:46 | 60.36172 | 25.04750 | 1149 ft | 136 kts | 231° |
| 2026-04-25 13:46 | 60.35548 | 25.03376 | 942 ft | 131 kts | 229° |
| 2026-04-25 13:46 | 60.34934 | 25.02005 | 707 ft | 136 kts | 230° |
| 2026-04-25 13:47 | 60.34304 | 25.00570 | 581 ft | 137 kts | 228° |
| 2026-04-25 13:47 | 60.33649 | 24.99149 | 388 ft | 137 kts | 227° |
| 2026-04-25 13:47 | 60.32997 | 24.97754 | 183 ft | 135 kts | 227° |
| 2026-04-25 13:47 | 60.32424 | 24.96494 | 174 ft | 103 kts | 228° |
| 2026-04-25 13:48 | 60.32078 | 24.95727 | 172 ft | 37 kts | 227° |
| 2026-04-25 13:48 | 60.31962 | 24.95474 | 171 ft | 17 kts | 223° |
| 2026-04-25 13:48 | 60.31882 | 24.95349 | 173 ft | 14 kts | 211° |
| 2026-04-25 13:48 | 60.31798 | 24.95270 | 173 ft | 13 kts | 201° |
| 2026-04-25 13:49 | 60.31729 | 24.95224 | 172 ft | 10 kts | 197° |
| 2026-04-25 13:49 | 60.31686 | 24.95199 | 170 ft | 5 kts | 195° |
| 2026-04-25 13:49 | 60.31650 | 24.95205 | 170 ft | 5 kts | 153° |
| 2026-04-25 13:49 | 60.31632 | 24.95267 | 169 ft | 5 kts | 92° |
| 2026-04-25 13:50 | 60.31646 | 24.95333 | 169 ft | 5 kts | 51° |
| 2026-04-25 13:50 | 60.31671 | 24.95393 | 169 ft | 6 kts | 49° |
| 2026-04-25 13:50 | 60.31699 | 24.95476 | 169 ft | 9 kts | 71° |
| 2026-04-25 13:50 | 60.31665 | 24.95609 | 166 ft | 10 kts | 137° |
| 2026-04-25 13:51 | 60.31615 | 24.95670 | 166 ft | 9 kts | 176° |
| 2026-04-25 13:51 | 60.31568 | 24.95630 | 166 ft | 7 kts | 181° |
| 2026-04-25 13:51 | 60.31529 | 24.95680 | 166 ft | 7 kts | 137° |
| 2026-04-25 13:51 | 60.31510 | 24.95714 | 166 ft | 3 kts | 138° |
| 2026-04-25 13:52 | 60.31503 | 24.95728 | 166 ft | 0 kts | 137° |